sensor_id;sensor_type;location;lat;lon;timestamp;pressure;altitude;pressure_sealevel;temperature;humidity
69593;BME280;56796;50.122;14.468;2023-04-26T00:13:38;977.59;;;4.91;71.82
69593;BME280;56796;50.122;14.468;2023-04-26T00:32:55;977.63;;;4.71;72.31
69593;BME280;56796;50.122;14.468;2023-04-26T00:52:20;977.72;;;4.44;73.73
69593;BME280;56796;50.122;14.468;2023-04-26T01:11:45;977.91;;;4.11;76.44
69593;BME280;56796;50.122;14.468;2023-04-26T01:31:10;978.01;;;3.98;77.92
69593;BME280;56796;50.122;14.468;2023-04-26T01:50:35;978.08;;;3.71;79.72
69593;BME280;56796;50.122;14.468;2023-04-26T02:10:01;978.11;;;3.74;80.24
69593;BME280;56796;50.122;14.468;2023-04-26T02:29:27;978.12;;;4;80.4
69593;BME280;56796;50.122;14.468;2023-04-26T02:48:53;978.12;;;4.26;80.17
69593;BME280;56796;50.122;14.468;2023-04-26T03:08:19;978.15;;;4.17;80.16
69593;BME280;56796;50.122;14.468;2023-04-26T03:27:45;978.23;;;4.17;80.25
69593;BME280;56796;50.122;14.468;2023-04-26T03:47:12;978.36;;;4.3;80.27
69593;BME280;56796;50.122;14.468;2023-04-26T04:06:38;978.55;;;4.34;80.71
69593;BME280;56796;50.122;14.468;2023-04-26T04:26:05;978.63;;;4.46;80.77
69593;BME280;56796;50.122;14.468;2023-04-26T04:45:31;978.72;;;4.59;79.13
69593;BME280;56796;50.122;14.468;2023-04-26T05:04:58;978.87;;;4.9;78.82
69593;BME280;56796;50.122;14.468;2023-04-26T05:24:28;979;;;5.39;78.1
69593;BME280;56796;50.122;14.468;2023-04-26T05:43:53;979.15;;;5.97;77.09
69593;BME280;56796;50.122;14.468;2023-04-26T06:03:22;979.26;;;6.6;74.24
69593;BME280;56796;50.122;14.468;2023-04-26T06:22:53;979.34;;;7.74;71.13
69593;BME280;56796;50.122;14.468;2023-04-26T06:42:19;979.4;;;6.34;71.04
69593;BME280;56796;50.122;14.468;2023-04-26T07:01:44;979.56;;;6.63;70.64
69593;BME280;56796;50.122;14.468;2023-04-26T07:21:14;979.49;;;8.6;66.01
69593;BME280;56796;50.122;14.468;2023-04-26T07:40:49;979.5;;;9.97;60.85
69593;BME280;56796;50.122;14.468;2023-04-26T08:00:08;979.76;;;7.31;65.87
69593;BME280;56796;50.122;14.468;2023-04-26T08:19:28;979.72;;;8.06;66.31
69593;BME280;56796;50.122;14.468;2023-04-26T08:38:55;979.83;;;7.77;63.92
69593;BME280;56796;50.122;14.468;2023-04-26T08:58:19;979.93;;;7.57;61.3
69593;BME280;56796;50.122;14.468;2023-04-26T09:17:46;979.94;;;8.59;61.2
69593;BME280;56796;50.122;14.468;2023-04-26T09:37:20;979.68;;;11.36;54.73
69593;BME280;56796;50.122;14.468;2023-04-26T10:16:14;979.73;;;9.97;49.25
69593;BME280;56796;50.122;14.468;2023-04-26T10:35:36;979.82;;;8.84;52.69
69593;BME280;56796;50.122;14.468;2023-04-26T10:55:10;979.51;;;12.56;45.75
69593;BME280;56796;50.122;14.468;2023-04-26T11:14:48;979.55;;;12.44;43.16
69593;BME280;56796;50.122;14.468;2023-04-26T11:34:04;979.43;;;12.87;44.2
69593;BME280;56796;50.122;14.468;2023-04-26T11:53:35;979.48;;;12.48;42.14
69593;BME280;56796;50.122;14.468;2023-04-26T12:12:55;979.5;;;12.62;43.74
69593;BME280;56796;50.122;14.468;2023-04-26T12:32:23;979.42;;;13.39;42.05
69593;BME280;56796;50.122;14.468;2023-04-26T12:51:54;979.44;;;12.99;38.76
69593;BME280;56796;50.122;14.468;2023-04-26T13:11:15;979.48;;;12.14;41.27
69593;BME280;56796;50.122;14.468;2023-04-26T13:30:44;979.47;;;13.44;40.48
69593;BME280;56796;50.122;14.468;2023-04-26T13:50:11;979.52;;;13.01;41.61
69593;BME280;56796;50.122;14.468;2023-04-26T14:09:28;979.54;;;11.58;42.34
69593;BME280;56796;50.122;14.468;2023-04-26T14:28:51;979.53;;;12.01;41.78
69593;BME280;56796;50.122;14.468;2023-04-26T14:48:16;979.45;;;12.03;41.23
69593;BME280;56796;50.122;14.468;2023-04-26T15:07:41;979.44;;;12.43;41.95
69593;BME280;56796;50.122;14.468;2023-04-26T15:27:06;979.5;;;11.35;43.18
69593;BME280;56796;50.122;14.468;2023-04-26T15:46:30;979.48;;;11.25;43.45
69593;BME280;56796;50.122;14.468;2023-04-26T16:05:55;979.5;;;11.56;42.26
69593;BME280;56796;50.122;14.468;2023-04-26T16:25:19;979.56;;;10.49;43.39
69593;BME280;56796;50.122;14.468;2023-04-26T16:44:42;979.63;;;10.13;44.66
69593;BME280;56796;50.122;14.468;2023-04-26T17:04:08;979.81;;;9.41;47.09
69593;BME280;56796;50.122;14.468;2023-04-26T17:23:23;979.96;;;8.85;48.53
69593;BME280;56796;50.122;14.468;2023-04-26T17:42:46;980.05;;;8.43;50.73
69593;BME280;56796;50.122;14.468;2023-04-26T18:02:11;980.11;;;8.09;51.61
69593;BME280;56796;50.122;14.468;2023-04-26T18:21:50;980.31;;;7.57;53.71
69593;BME280;56796;50.122;14.468;2023-04-26T18:40:51;980.43;;;7.3;54.6
69593;BME280;56796;50.122;14.468;2023-04-26T19:00:19;980.68;;;7.2;55.05
69593;BME280;56796;50.122;14.468;2023-04-26T19:19:37;980.8;;;7.19;55.52
69593;BME280;56796;50.122;14.468;2023-04-26T19:39:02;980.93;;;6.86;56.16
69593;BME280;56796;50.122;14.468;2023-04-26T19:58:28;981.11;;;6.64;57.08
69593;BME280;56796;50.122;14.468;2023-04-26T20:17:53;981.19;;;6.58;57.85
69593;BME280;56796;50.122;14.468;2023-04-26T20:37:19;981.23;;;6.83;57.21
69593;BME280;56796;50.122;14.468;2023-04-26T20:56:46;981.26;;;6.9;57.09
69593;BME280;56796;50.122;14.468;2023-04-26T21:16:13;981.26;;;6.87;57.64
69593;BME280;56796;50.122;14.468;2023-04-26T21:35:39;981.35;;;6.62;60.32
69593;BME280;56796;50.122;14.468;2023-04-26T21:55:05;981.42;;;6.69;60.66
69593;BME280;56796;50.122;14.468;2023-04-26T22:14:31;981.61;;;6.77;59.5
69593;BME280;56796;50.122;14.468;2023-04-26T22:33:57;981.64;;;6.65;60.43
69593;BME280;56796;50.122;14.468;2023-04-26T22:53:22;981.81;;;6.59;61.59
69593;BME280;56796;50.122;14.468;2023-04-26T23:12:48;981.82;;;6.5;62.39
69593;BME280;56796;50.122;14.468;2023-04-26T23:32:13;981.84;;;6.61;61.74
69593;BME280;56796;50.122;14.468;2023-04-26T23:51:39;981.85;;;6.45;64.22
